Time;durP1;ratioP1;P1;durP2;ratioP2;P2;SDS_P1;SDS_P2;PMS_P1;PMS_P2;Temp;Humidity;BMP_temperature;BMP_pressure;BME280_temperature;BME280_humidity;BME280_pressure;Samples;Min_cycle;Max_cycle;Signal;HPM_P1;HPM_P2
2021/05/17 00:02:36;;;;;;;10.47;9.47;;;;;;;7.08;76.79;97833.33;2179605;82;21045;-79
2021/05/17 00:05:37;;;;;;;9.20;8.33;;;;;;;7.05;76.85;97834.60;2180062;82;20934;-79
2021/05/17 00:08:38;;;;;;;10.13;9.23;;;;;;;7.06;76.87;97835.47;2179842;82;21062;-79
2021/05/17 00:11:39;;;;;;;10.37;9.33;;;;;;;7.06;76.86;97831.58;2179619;81;21029;-79
2021/05/17 00:14:40;;;;;;;10.17;9.10;;;;;;;7.03;76.79;97838.48;2180001;82;20946;-79
2021/05/17 00:17:41;;;;;;;10.97;9.00;;;;;;;7.01;76.95;97837.59;2179789;82;20978;-79
2021/05/17 00:20:42;;;;;;;9.00;8.10;;;;;;;6.98;76.72;97831.50;2179745;82;20922;-79
2021/05/17 00:23:43;;;;;;;10.20;9.20;;;;;;;6.91;76.62;97825.35;2179455;82;20962;-79
2021/05/17 00:26:44;;;;;;;9.63;8.67;;;;;;;6.88;76.79;97829.64;2179549;82;20934;-79
2021/05/17 00:29:45;;;;;;;9.50;8.07;;;;;;;6.87;76.95;97826.60;2180188;82;20970;-79
2021/05/17 00:32:46;;;;;;;9.80;8.83;;;;;;;6.83;76.75;97821.81;2179992;82;20942;-79
2021/05/17 00:35:50;;;;;;;10.10;8.43;;;;;;;6.84;76.82;97817.49;2179389;82;20969;-79
2021/05/17 00:38:49;;;;;;;9.20;8.37;;;;;;;6.78;76.77;97810.95;2179377;82;21034;-79
2021/05/17 00:41:50;;;;;;;9.73;8.73;;;;;;;6.70;76.88;97806.98;2179647;82;21021;-79
2021/05/17 00:44:51;;;;;;;16.90;10.17;;;;;;;6.68;77.20;97803.50;2179747;82;21023;-79
2021/05/17 00:47:52;;;;;;;12.47;9.80;;;;;;;6.65;77.38;97804.34;2179708;82;20963;-79
2021/05/17 00:50:53;;;;;;;9.77;8.80;;;;;;;6.63;77.58;97804.75;2179876;82;21053;-79
2021/05/17 00:53:54;;;;;;;9.47;8.47;;;;;;;6.65;77.85;97801.74;2179567;82;20990;-79
2021/05/17 00:56:55;;;;;;;9.47;8.60;;;;;;;6.66;77.75;97794.83;2180006;82;21290;-81
2021/05/17 00:59:56;;;;;;;10.83;9.83;;;;;;;6.66;78.01;97793.53;2180090;82;21326;-80
2021/05/17 01:02:57;;;;;;;10.47;9.40;;;;;;;6.73;78.10;97795.77;2179330;82;21331;-80
2021/05/17 01:05:58;;;;;;;19.83;11.13;;;;;;;6.75;77.78;97800.55;2180134;82;21330;-80
2021/05/17 01:08:58;;;;;;;10.10;9.03;;;;;;;6.74;78.25;97800.09;2179486;81;20942;-80
2021/05/17 01:12:00;;;;;;;11.73;10.53;;;;;;;6.70;77.99;97799.20;2168457;81;21027;-80
2021/05/17 01:15:01;;;;;;;10.87;9.43;;;;;;;6.70;77.99;97799.20;2161991;82;20923;-80
2021/05/17 01:18:01;;;;;;;11.20;10.13;;;;;;;6.70;78.22;97790.99;2162007;82;20939;-80
2021/05/17 01:21:02;;;;;;;11.20;10.00;;;;;;;6.71;78.67;97792.73;2161969;82;21303;-80
2021/05/17 01:24:03;;;;;;;11.50;10.30;;;;;;;6.76;78.71;97794.07;2162276;82;20922;-80
2021/05/17 01:27:04;;;;;;;11.40;10.23;;;;;;;6.74;77.88;97791.89;2162032;82;21078;-80
2021/05/17 01:30:05;;;;;;;10.57;9.57;;;;;;;6.74;77.88;97791.89;2161897;82;21331;-80
2021/05/17 01:33:06;;;;;;;11.20;10.00;;;;;;;6.68;78.04;97791.41;2162277;82;20995;-80
2021/05/17 01:36:08;;;;;;;9.90;8.90;;;;;;;6.65;78.00;97790.50;2162244;82;20923;-80
2021/05/17 01:39:09;;;;;;;11.57;9.23;;;;;;;6.65;78.04;97795.69;2162182;82;20998;-80
2021/05/17 01:42:09;;;;;;;10.97;9.50;;;;;;;6.56;77.67;97787.81;2161972;82;21046;-80
2021/05/17 01:45:11;;;;;;;9.83;8.83;;;;;;;6.53;78.25;97789.94;2161987;82;20955;-80
2021/05/17 01:48:12;;;;;;;11.57;9.37;;;;;;;6.54;78.32;97792.11;2162021;82;20970;-81
2021/05/17 01:51:14;;;;;;;10.60;9.37;;;;;;;6.57;78.55;97790.84;2161941;82;20915;-80
2021/05/17 01:54:15;;;;;;;10.90;8.47;;;;;;;6.56;78.97;97789.98;2162000;82;21014;-79
2021/05/17 01:57:16;;;;;;;9.77;8.67;;;;;;;6.61;78.74;97785.71;2162005;82;20962;-80
2021/05/17 02:00:17;;;;;;;9.50;8.50;;;;;;;6.64;79.32;97788.34;2162358;82;20935;-80
2021/05/17 02:03:18;;;;;;;9.63;8.73;;;;;;;6.74;79.83;97785.41;2162005;82;21291;-81
2021/05/17 02:06:19;;;;;;;10.33;9.33;;;;;;;6.79;79.85;97794.10;2161822;82;20947;-80
2021/05/17 02:09:20;;;;;;;8.70;7.93;;;;;;;6.85;79.83;97788.98;2161995;82;20934;-80
2021/05/17 02:12:21;;;;;;;10.43;8.80;;;;;;;6.90;79.91;97791.61;2162103;82;21018;-80
2021/05/17 02:15:22;;;;;;;9.47;8.57;;;;;;;6.89;79.70;97792.04;2161871;82;20935;-81
2021/05/17 02:18:25;;;;;;;11.03;8.97;;;;;;;6.86;79.80;97786.83;2161974;82;20982;-81
2021/05/17 02:21:26;;;;;;;9.60;8.70;;;;;;;6.92;80.21;97788.17;2162096;82;21005;-81
2021/05/17 02:24:27;;;;;;;13.63;8.47;;;;;;;6.92;80.21;97788.17;2162094;82;21314;-80
2021/05/17 02:27:28;;;;;;;10.47;8.90;;;;;;;6.95;80.19;97789.53;2161826;82;21011;-80
2021/05/17 02:30:29;;;;;;;9.40;8.53;;;;;;;6.98;80.18;97805.13;2161935;82;20950;-80
2021/05/17 02:33:30;;;;;;;8.87;8.07;;;;;;;7.03;80.25;97809.06;2162031;82;20923;-81
2021/05/17 02:36:31;;;;;;;9.50;8.60;;;;;;;7.07;80.19;97809.97;2161946;82;20955;-81
2021/05/17 02:39:32;;;;;;;9.23;8.33;;;;;;;7.12;79.87;97818.66;2162062;82;20991;-80
2021/05/17 02:42:33;;;;;;;9.63;8.73;;;;;;;7.07;79.76;97820.34;2162147;82;20995;-80
2021/05/17 02:45:35;;;;;;;9.87;8.87;;;;;;;7.15;79.87;97812.20;2162239;82;20975;-80
2021/05/17 02:48:40;;;;;;;13.00;8.40;;;;;;;7.15;79.87;97812.20;2162093;82;20967;-80
2021/05/17 02:51:38;;;;;;;9.43;8.53;;;;;;;7.19;79.86;97812.23;2161616;82;21066;-81
2021/05/17 02:54:39;;;;;;;10.07;9.07;;;;;;;7.27;79.86;97816.20;2162176;82;21284;-81
2021/05/17 02:57:40;;;;;;;8.97;8.17;;;;;;;7.35;79.75;97809.34;2162421;82;21299;-80
2021/05/17 03:00:41;;;;;;;8.80;7.90;;;;;;;7.43;79.46;97799.89;2162186;82;21319;-80
2021/05/17 03:03:42;;;;;;;8.87;8.07;;;;;;;7.53;79.55;97801.69;2162348;82;20907;-80
2021/05/17 03:06:42;;;;;;;8.57;7.77;;;;;;;7.62;79.60;97800.45;2162285;82;21295;-81
2021/05/17 03:09:44;;;;;;;8.07;7.37;;;;;;;7.71;79.45;97810.03;2162204;82;21375;-81
2021/05/17 03:12:44;;;;;;;8.00;7.40;;;;;;;7.78;79.53;97807.05;2162081;81;20970;-81
2021/05/17 03:15:45;;;;;;;7.60;6.97;;;;;;;7.83;79.35;97807.98;2162293;82;20962;-81
2021/05/17 03:18:46;;;;;;;7.60;6.90;;;;;;;7.87;79.26;97805.84;2162120;82;21382;-81
2021/05/17 03:21:47;;;;;;;7.67;6.97;;;;;;;7.93;79.28;97812.37;2162167;82;21418;-80
2021/05/17 03:24:48;;;;;;;8.33;6.97;;;;;;;8.04;79.36;97819.80;2162269;82;21335;-80
2021/05/17 03:27:49;;;;;;;7.40;6.80;;;;;;;8.17;79.29;97813.80;2162249;82;20967;-80
2021/05/17 03:30:50;;;;;;;6.80;6.10;;;;;;;8.31;79.07;97819.06;2162130;82;21335;-81
2021/05/17 03:33:51;;;;;;;6.93;6.33;;;;;;;8.42;79.13;97842.54;2161957;82;20998;-80
2021/05/17 03:36:52;;;;;;;8.27;6.10;;;;;;;8.52;78.87;97849.52;2162030;82;21042;-81
2021/05/17 03:39:53;;;;;;;8.13;6.30;;;;;;;8.63;78.62;97845.22;2162283;82;21053;-79
2021/05/17 03:42:54;;;;;;;10.73;6.10;;;;;;;8.81;78.46;97844.02;2161963;82;20990;-78
2021/05/17 03:45:55;;;;;;;9.47;8.07;;;;;;;8.97;78.14;97838.41;2161822;82;20963;-78
2021/05/17 03:48:56;;;;;;;21.70;9.57;;;;;;;9.11;78.03;97841.05;2162011;82;20950;-78
2021/05/17 03:51:57;;;;;;;11.23;8.13;;;;;;;9.29;78.08;97841.06;2162013;82;21002;-78
2021/05/17 03:54:58;;;;;;;9.17;8.27;;;;;;;9.44;78.02;97833.69;2161974;82;20935;-78
2021/05/17 03:58:00;;;;;;;9.07;6.80;;;;;;;9.54;77.83;97831.55;2162046;82;20967;-79
2021/05/17 04:01:01;;;;;;;6.70;6.10;;;;;;;9.71;77.83;97831.11;2162000;82;20955;-79
2021/05/17 04:04:02;;;;;;;7.40;6.70;;;;;;;9.90;77.78;97830.65;2162023;82;20982;-79
2021/05/17 04:07:32;;;;;;;6.90;6.30;;;;;;;10.03;77.52;97828.88;2162119;82;21331;-79
2021/05/17 04:13:42;;;;;;;7.17;6.47;;;;;;;10.32;77.06;97827.09;2177173;82;21133;-79
2021/05/17 04:16:43;;;;;;;6.93;6.33;;;;;;;10.52;77.10;97826.62;2179083;82;20919;-80
2021/05/17 04:19:44;;;;;;;6.77;6.10;;;;;;;10.72;76.94;97826.96;2179234;82;20931;-79
2021/05/17 04:22:45;;;;;;;6.77;6.17;;;;;;;10.87;76.47;97819.48;2179222;82;20997;-78
2021/05/17 04:25:46;;;;;;;5.97;5.47;;;;;;;11.06;76.27;97827.20;2179254;82;20929;-79
2021/05/17 04:28:47;;;;;;;7.78;6.22;;;;;;;11.19;75.93;97822.77;2179229;82;20966;-79
2021/05/17 04:31:48;;;;;;;5.75;5.15;;;;;;;11.35;75.87;97817.02;2179324;82;20954;-79
2021/05/17 04:34:49;;;;;;;6.62;5.95;;;;;;;11.40;75.27;97804.79;2179329;82;20966;-79
2021/05/17 04:37:50;;;;;;;10.58;6.03;;;;;;;11.44;75.03;97803.88;2179351;82;21267;-79
2021/05/17 04:40:51;;;;;;;7.22;5.80;;;;;;;11.59;75.05;97805.50;2179554;82;20993;-79
2021/05/17 04:43:52;;;;;;;11.78;6.12;;;;;;;11.56;74.83;97799.86;2179515;82;21382;-78
2021/05/17 04:46:53;;;;;;;6.17;5.60;;;;;;;11.62;74.69;97802.86;2179049;82;20969;-80
2021/05/17 04:49:54;;;;;;;6.42;5.83;;;;;;;11.71;74.60;97808.00;2179173;82;20954;-80
2021/05/17 04:52:55;;;;;;;6.87;6.08;;;;;;;11.87;74.48;97813.55;2179732;82;20941;-79
2021/05/17 04:55:56;;;;;;;7.92;5.97;;;;;;;11.96;74.13;97814.77;2179553;82;21057;-79
2021/05/17 04:58:57;;;;;;;6.47;5.45;;;;;;;11.95;74.17;97816.09;2179574;82;21049;-79
2021/05/17 05:01:58;;;;;;;6.78;5.75;;;;;;;11.94;74.08;97824.81;2179561;82;21251;-79
2021/05/17 05:04:59;;;;;;;6.80;6.15;;;;;;;11.91;74.03;97820.92;2179624;82;20903;-79
2021/05/17 05:08:00;;;;;;;8.88;6.08;;;;;;;11.89;74.42;97816.15;2179564;82;21001;-80
2021/05/17 05:11:01;;;;;;;6.97;6.28;;;;;;;11.82;74.45;97808.80;2179691;82;21033;-81
2021/05/17 05:14:03;;;;;;;6.37;5.80;;;;;;;11.92;74.60;97799.98;2179952;81;21129;-79
2021/05/17 05:17:03;;;;;;;7.33;6.05;;;;;;;12.37;74.74;97797.78;2180279;82;21037;-79
2021/05/17 05:20:04;;;;;;;8.78;6.28;;;;;;;12.85;73.99;97797.59;2179759;82;20918;-79
2021/05/17 05:23:05;;;;;;;7.45;5.92;;;;;;;13.19;73.54;97795.41;2179673;82;21006;-80
2021/05/17 05:29:48;;;;;;;6.30;5.70;;;;;;;13.34;72.12;97809.58;2179294;82;20961;-78
2021/05/17 05:32:54;;;;;;;;;;;;;;;13.34;71.79;97806.09;2179642;82;20950;-78
2021/05/17 05:35:51;;;;;;;6.10;5.47;;;;;;;13.64;71.94;97812.59;2178591;82;20134;-78
2021/05/17 05:38:53;;;;;;;41.20;6.97;;;;;;;14.09;71.39;97806.15;2179171;82;21298;-78
2021/05/17 05:41:53;;;;;;;6.30;5.70;;;;;;;14.48;70.82;97806.72;2179406;82;21389;-78
2021/05/17 05:44:55;;;;;;;6.17;5.08;;;;;;;15.05;70.04;97797.66;2179452;82;21401;-79
2021/05/17 05:47:56;;;;;;;7.22;5.05;;;;;;;15.54;69.53;97803.94;2179404;82;20946;-78
2021/05/17 05:50:57;;;;;;;5.22;4.70;;;;;;;15.73;66.44;97789.94;2179031;82;20938;-79
2021/05/17 05:53:58;;;;;;;6.90;5.22;;;;;;;15.73;66.44;97789.94;2179329;82;21314;-79
2021/05/17 05:56:59;;;;;;;6.33;5.50;;;;;;;15.62;66.89;97788.90;2179472;82;20957;-79
2021/05/17 06:00:00;;;;;;;7.15;5.03;;;;;;;15.45;66.39;97780.05;2178748;82;20954;-79
2021/05/17 06:03:01;;;;;;;6.05;5.45;;;;;;;15.56;66.80;97783.73;2179197;82;20935;-80
2021/05/17 06:06:02;;;;;;;6.37;4.62;;;;;;;15.83;66.33;97783.55;2179346;82;21041;-79
2021/05/17 06:09:03;;;;;;;8.28;5.30;;;;;;;15.93;65.79;97785.89;2179265;82;21041;-80
2021/05/17 06:12:04;;;;;;;5.50;4.75;;;;;;;15.86;64.50;97787.41;2179697;81;20998;-80
2021/05/17 06:15:05;;;;;;;6.22;5.62;;;;;;;15.65;64.46;97788.82;2179629;82;21071;-81
2021/05/17 06:18:06;;;;;;;5.50;5.00;;;;;;;15.49;64.84;97796.16;2179972;82;20962;-79
2021/05/17 06:21:07;;;;;;;7.78;5.33;;;;;;;15.37;64.95;97792.97;2179402;82;20999;-80
2021/05/17 06:24:10;;;;;;;73.17;15.53;;;;;;;15.30;65.32;97781.28;2179596;82;20920;-80
2021/05/17 06:27:10;;;;;;;9.80;5.33;;;;;;;15.29;65.91;97777.38;2179317;82;20962;-78
2021/05/17 06:30:12;;;;;;;7.65;6.12;;;;;;;15.40;66.22;97777.11;2179571;82;20978;-78
2021/05/17 06:33:13;;;;;;;5.90;5.40;;;;;;;15.44;66.08;97778.32;2179333;82;21009;-79
2021/05/17 06:36:16;;;;;;;7.05;5.97;;;;;;;15.46;65.51;97779.59;2179387;82;20915;-79
2021/05/17 06:39:17;;;;;;;6.17;5.60;;;;;;;15.46;65.90;97780.91;2179741;82;20974;-79
2021/05/17 06:42:18;;;;;;;6.78;6.08;;;;;;;15.51;66.04;97780.34;2179766;82;20950;-79
2021/05/17 06:45:19;;;;;;;8.85;6.70;;;;;;;15.59;66.02;97782.37;2180291;82;20997;-80
2021/05/17 06:48:20;;;;;;;6.67;6.08;;;;;;;15.72;66.05;97775.92;2179478;82;21385;-79
2021/05/17 06:51:21;;;;;;;7.08;5.65;;;;;;;15.97;65.16;97773.97;2179545;82;20946;-79
2021/05/17 06:54:28;;;;;;;7.12;6.00;;;;;;;16.15;65.27;97779.60;2178950;82;21028;-79
2021/05/17 06:57:46;;;;;;;6.60;5.80;;;;;;;16.56;64.53;97774.52;2178754;81;20914;-80
2021/05/17 07:00:31;;;;;;;10.43;6.10;;;;;;;16.95;64.18;97770.31;2175671;82;20986;-80
2021/05/17 07:03:32;;;;;;;16.62;7.33;;;;;;;17.30;62.94;97768.34;2179108;82;21332;-79
2021/05/17 07:06:33;;;;;;;5.42;5.00;;;;;;;17.58;62.48;97768.34;2178716;82;20962;-79
2021/05/17 07:12:53;;;;;;;5.25;4.75;;;;;;;18.23;60.08;97766.13;2179148;82;20993;-79
2021/05/17 07:15:54;;;;;;;5.70;5.20;;;;;;;18.31;59.47;97761.43;2179116;82;20982;-79
2021/05/17 07:18:55;;;;;;;6.08;5.47;;;;;;;18.44;59.26;97762.70;2179348;82;21326;-80
2021/05/17 07:25:14;;;;;;;7.75;6.20;;;;;;;18.26;59.14;97760.73;2175253;82;20946;-80
2021/05/17 07:28:15;;;;;;;7.17;5.92;;;;;;;18.01;59.95;97760.72;2179370;82;20926;-80
2021/05/17 07:31:19;;;;;;;8.05;6.60;;;;;;;17.97;59.56;97749.86;2179603;82;20934;-79
2021/05/17 07:34:20;;;;;;;7.08;6.35;;;;;;;17.78;60.22;97750.95;2179441;82;20911;-79
2021/05/17 07:37:21;;;;;;;7.37;6.00;;;;;;;17.97;60.71;97751.63;2178815;82;20954;-78
2021/05/17 07:40:22;;;;;;;7.28;6.10;;;;;;;18.12;60.41;97748.45;2179337;82;21033;-78
2021/05/17 07:43:23;;;;;;;23.32;8.33;;;;;;;18.32;60.51;97743.34;2179255;82;21469;-80
2021/05/17 07:46:24;;;;;;;9.00;6.12;;;;;;;18.70;59.99;97749.02;2179453;82;21076;-79
2021/05/17 07:49:40;;;;;;;14.10;6.28;;;;;;;19.34;59.30;97746.52;2179749;82;20935;-79
2021/05/17 07:52:40;;;;;;;4.97;3.70;;;;;;;19.62;58.45;97740.52;2179368;82;21053;-79
2021/05/17 07:55:41;;;;;;;3.93;3.50;;;;;;;19.88;54.98;97735.89;2179561;82;20962;-78
2021/05/17 07:58:43;;;;;;;6.87;2.98;;;;;;;19.76;54.74;97735.09;2179491;82;21046;-79
2021/05/17 08:01:46;;;;;;;4.83;2.85;;;;;;;19.78;53.70;97730.59;2179243;82;21347;-80
2021/05/17 08:04:50;;;;;;;6.65;3.10;;;;;;;19.72;52.79;97729.93;2179338;82;21041;-80
2021/05/17 08:07:50;;;;;;;3.47;2.60;;;;;;;19.91;51.98;97722.52;2179171;82;21049;-80
2021/05/17 08:10:51;;;;;;;5.53;2.40;;;;;;;19.92;51.76;97714.97;2179298;82;21005;-81
2021/05/17 08:13:52;;;;;;;3.50;2.37;;;;;;;19.80;50.72;97716.83;2179679;82;21049;-78
2021/05/17 08:16:54;;;;;;;11.90;3.08;;;;;;;19.72;51.12;97715.37;2179095;82;20914;-80
2021/05/17 08:19:54;;;;;;;7.83;2.90;;;;;;;19.68;51.47;97712.92;2179306;82;21042;-80
2021/05/17 08:22:55;;;;;;;3.87;2.60;;;;;;;19.69;51.29;97711.53;2179244;82;20935;-78
2021/05/17 08:25:56;;;;;;;3.62;2.35;;;;;;;19.63;50.67;97709.14;2178893;82;21318;-79
2021/05/17 08:28:57;;;;;;;3.83;2.40;;;;;;;19.63;50.62;97715.77;2178457;82;20946;-79
2021/05/17 08:31:59;;;;;;;2.72;2.30;;;;;;;19.75;50.25;97717.48;2179012;82;20915;-78
2021/05/17 08:35:00;;;;;;;3.55;2.30;;;;;;;19.83;50.87;97712.72;2179245;82;21005;-79
2021/05/17 08:38:01;;;;;;;2.40;2.20;;;;;;;19.95;49.41;97710.90;2179051;82;21302;-79
2021/05/17 08:41:02;;;;;;;349.00;26.87;;;;;;;19.88;50.84;97708.95;2179143;82;21025;-78
2021/05/17 08:44:03;;;;;;;4.05;2.58;;;;;;;20.02;50.24;97707.05;2179005;81;21082;-78
2021/05/17 08:47:04;;;;;;;4.25;2.83;;;;;;;20.06;50.29;97713.08;2179035;82;21030;-78
2021/05/17 08:50:05;;;;;;;3.65;2.10;;;;;;;20.15;49.77;97712.20;2178974;82;20941;-80
2021/05/17 08:53:06;;;;;;;6.12;2.58;;;;;;;20.16;48.97;97719.22;2179021;82;20911;-79
2021/05/17 08:56:08;;;;;;;4.25;2.60;;;;;;;19.90;49.26;97712.39;2178950;82;20985;-79
2021/05/17 08:59:09;;;;;;;3.33;3.02;;;;;;;19.85;49.85;97709.55;2178918;82;21311;-79
2021/05/17 09:02:11;;;;;;;24.37;5.50;;;;;;;19.87;49.28;97707.23;2178881;82;20918;-79
2021/05/17 09:05:12;;;;;;;3.25;2.90;;;;;;;19.69;50.06;97708.02;2178921;82;21037;-78
2021/05/17 09:08:15;;;;;;;5.17;3.80;;;;;;;19.64;50.16;97708.68;2179091;82;20974;-79
2021/05/17 09:11:16;;;;;;;8.05;3.30;;;;;;;19.36;50.73;97704.97;2178910;82;21018;-78
2021/05/17 09:14:17;;;;;;;200.38;16.23;;;;;;;19.33;51.23;97710.39;2178784;82;21415;-77
2021/05/17 09:17:18;;;;;;;4.97;2.55;;;;;;;19.35;51.20;97703.25;2178900;81;20937;-78
2021/05/17 09:20:19;;;;;;;3.35;3.05;;;;;;;19.34;51.26;97706.83;2179005;82;20938;-78
2021/05/17 09:23:20;;;;;;;4.42;3.30;;;;;;;19.48;51.33;97701.81;2179060;82;20998;-78
2021/05/17 09:26:26;;;;;;;3.45;3.15;;;;;;;19.87;51.11;97700.61;2178897;82;20993;-79
2021/05/17 09:29:24;;;;;;;3.35;2.75;;;;;;;20.63;49.75;97693.23;2178170;82;20941;-79
2021/05/17 09:32:25;;;;;;;3.55;3.25;;;;;;;21.13;48.38;97691.79;2179008;82;20962;-79
2021/05/17 09:35:26;;;;;;;4.03;2.83;;;;;;;21.46;48.53;97690.63;2178927;82;20950;-78
2021/05/17 09:38:27;;;;;;;11.18;4.20;;;;;;;21.81;47.21;97682.22;2178841;82;21318;-79
2021/05/17 09:41:28;;;;;;;4.45;2.60;;;;;;;22.16;46.90;97687.91;2178943;82;20954;-77
2021/05/17 09:44:29;;;;;;;3.00;2.05;;;;;;;22.44;46.00;97685.95;2178994;81;21385;-79
2021/05/17 09:47:31;;;;;;;8.13;2.00;;;;;;;22.73;43.67;97676.41;2152007;82;20890;-81
2021/05/17 09:50:32;;;;;;;6.65;1.95;;;;;;;22.59;43.83;97682.11;2179042;82;20914;-80
2021/05/17 09:53:33;;;;;;;8.35;1.60;;;;;;;22.94;43.49;97683.70;2179172;82;21013;-80
2021/05/17 09:56:34;;;;;;;3.15;1.10;;;;;;;23.37;41.03;97678.58;2179209;82;20989;-79
2021/05/17 09:59:35;;;;;;;6.65;1.60;;;;;;;23.61;40.12;97671.02;2178923;82;20942;-80
2021/05/17 10:02:37;;;;;;;8.55;1.50;;;;;;;23.64;38.90;97665.04;2178713;82;20962;-78
2021/05/17 10:05:38;;;;;;;1.75;1.00;;;;;;;23.65;38.24;97665.42;2179129;82;20958;-78
2021/05/17 10:08:39;;;;;;;2.52;1.20;;;;;;;23.60;37.85;97671.50;2179049;82;20906;-77
2021/05/17 10:11:40;;;;;;;3.65;1.12;;;;;;;23.48;37.23;97672.19;2179319;82;20927;-79
2021/05/17 10:14:41;;;;;;;7.05;1.30;;;;;;;23.35;37.31;97666.69;2167959;82;21014;-79
2021/05/17 10:17:43;;;;;;;14.25;2.10;;;;;;;23.28;38.25;97672.45;2161533;82;21006;-79
2021/05/17 10:20:43;;;;;;;1.70;1.40;;;;;;;23.31;38.21;97670.95;2161143;82;20989;-77
2021/05/17 10:23:46;;;;;;;4.75;1.77;;;;;;;23.22;38.21;97665.69;2161796;82;20928;-78
2021/05/17 10:26:47;;;;;;;1.30;1.20;;;;;;;22.92;38.71;97658.12;2161687;82;21018;-78
2021/05/17 10:29:49;;;;;;;1.30;1.20;;;;;;;22.75;39.48;97663.88;2161652;82;21010;-78
2021/05/17 10:32:49;;;;;;;3.98;1.30;;;;;;;22.57;38.69;97664.91;2161163;82;20983;-78
2021/05/17 10:35:51;;;;;;;2.17;1.30;;;;;;;22.41;39.89;97660.01;2161496;82;20986;-78
2021/05/17 10:38:53;;;;;;;10.50;1.80;;;;;;;22.38;40.17;97666.34;2161475;82;21046;-78
2021/05/17 10:41:58;;;;;;;1.00;1.00;;;;;;;22.33;40.12;97666.20;2161759;82;20938;-79
2021/05/17 10:48:17;;;;;;;3.98;1.30;;;;;;;21.96;39.54;97661.97;2161560;82;20971;-78
2021/05/17 10:51:18;;;;;;;3.87;1.40;;;;;;;21.61;40.83;97649.55;2161625;82;21026;-79
2021/05/17 10:54:19;;;;;;;4.60;1.80;;;;;;;21.55;40.86;97653.84;2161630;82;21066;-79
2021/05/17 10:57:22;;;;;;;2.77;1.55;;;;;;;21.49;41.33;97652.83;2161458;82;20931;-78
2021/05/17 11:00:27;;;;;;;2.25;1.75;;;;;;;21.35;42.34;97651.34;2161397;82;20930;-78
2021/05/17 11:03:26;;;;;;;6.87;2.45;;;;;;;21.30;42.41;97649.39;2161194;82;21022;-78
2021/05/17 11:06:33;;;;;;;;;;;;;;;21.26;42.35;97642.05;2164131;82;20951;-78
2021/05/17 11:09:34;;;;;;;36.38;4.08;;;;;;;21.30;42.21;97638.77;2161834;82;20110;-77
2021/05/17 11:12:35;;;;;;;1.40;1.30;;;;;;;21.36;42.89;97638.46;2161626;82;20986;-78
2021/05/17 11:15:41;;;;;;;1.50;1.30;;;;;;;21.42;42.89;97640.80;2162039;81;21093;-78
2021/05/17 11:18:45;;;;;;;2.62;1.65;;;;;;;21.49;41.58;97641.35;2162130;82;20946;-78
2021/05/17 11:21:45;;;;;;;36.98;4.45;;;;;;;21.54;42.76;97640.18;2161977;81;20990;-82
2021/05/17 11:24:46;;;;;;;21.42;4.70;;;;;;;21.81;41.56;97630.42;2162300;82;20923;-79
2021/05/17 11:27:47;;;;;;;42.75;4.78;;;;;;;22.09;41.25;97634.70;2162141;82;20950;-80
2021/05/17 11:30:48;;;;;;;3.15;1.57;;;;;;;22.32;40.27;97632.13;2162071;82;21007;-79
2021/05/17 11:33:49;;;;;;;1.77;1.20;;;;;;;22.59;40.22;97628.92;2162046;82;21054;-79
2021/05/17 11:36:50;;;;;;;8.05;1.42;;;;;;;22.82;38.90;97627.19;2161899;82;21439;-80
2021/05/17 11:39:53;;;;;;;1.72;1.40;;;;;;;22.94;37.75;97620.31;2141395;82;20922;-79
2021/05/17 11:42:56;;;;;;;3.55;1.40;;;;;;;23.00;37.52;97630.13;2162018;82;20971;-80
2021/05/17 11:45:57;;;;;;;6.50;1.50;;;;;;;23.06;37.53;97623.59;2162172;82;21026;-78
2021/05/17 11:48:57;;;;;;;8.85;1.90;;;;;;;23.19;37.90;97625.45;2162594;82;21347;-78
2021/05/17 11:51:58;;;;;;;4.30;1.30;;;;;;;23.33;37.71;97621.13;2162812;82;21315;-80
2021/05/17 11:54:59;;;;;;;1.82;1.20;;;;;;;23.21;35.29;97620.05;2162272;82;20950;-79
2021/05/17 11:58:00;;;;;;;1.40;1.30;;;;;;;23.01;37.12;97617.68;2161966;82;21407;-80
2021/05/17 12:01:02;;;;;;;3.92;1.25;;;;;;;23.04;37.15;97617.03;2162303;82;20998;-81
2021/05/17 12:04:03;;;;;;;1.50;1.10;;;;;;;23.21;37.33;97620.05;2162237;82;20927;-80
2021/05/17 12:07:03;;;;;;;16.65;9.58;;;;;;;23.49;37.47;97615.31;2162158;82;21006;-81
2021/05/17 12:10:04;;;;;;;6.55;1.50;;;;;;;23.64;36.60;97617.09;2161895;82;21042;-80
2021/05/17 12:13:05;;;;;;;2.87;1.40;;;;;;;23.77;36.53;97603.88;2162071;82;20915;-79
2021/05/17 12:16:06;;;;;;;1.27;1.10;;;;;;;23.69;35.62;97606.16;2178378;81;21030;-80
2021/05/17 12:19:08;;;;;;;3.87;1.47;;;;;;;23.59;36.28;97611.66;2180383;82;21323;-81
2021/05/17 12:22:09;;;;;;;4.70;1.40;;;;;;;23.46;35.87;97606.17;2179756;82;20990;-81
2021/05/17 12:25:10;;;;;;;7.17;2.00;;;;;;;23.15;36.20;97615.08;2152264;82;21271;-80
2021/05/17 12:28:11;;;;;;;2.22;1.30;;;;;;;22.91;36.69;97615.16;2180091;82;21029;-80
2021/05/17 12:31:11;;;;;;;1.30;1.20;;;;;;;22.83;37.05;97608.48;2179859;82;20918;-80
2021/05/17 12:34:13;;;;;;;20.48;3.30;;;;;;;22.78;37.08;97611.84;2179865;82;20930;-81
2021/05/17 12:37:13;;;;;;;3.40;1.02;;;;;;;22.66;36.91;97613.86;2179862;82;21343;-80
2021/05/17 12:40:14;;;;;;;3.80;1.35;;;;;;;22.57;37.39;97617.03;2179661;82;21279;-81
2021/05/17 12:43:16;;;;;;;4.00;1.50;;;;;;;22.50;37.37;97619.62;2179764;82;20926;-77
2021/05/17 12:46:18;;;;;;;4.12;1.77;;;;;;;22.36;37.71;97623.04;2179042;82;21065;-80
2021/05/17 12:49:19;;;;;;;9.93;2.98;;;;;;;22.20;40.29;97626.14;2179673;82;20954;-81
2021/05/17 12:52:22;;;;;;;6.40;3.27;;;;;;;21.36;43.85;97642.44;2179778;82;21037;-79
2021/05/17 12:55:24;;;;;;;3.95;2.92;;;;;;;20.35;47.24;97636.64;2179610;82;21295;-80
2021/05/17 12:58:25;;;;;;;4.28;3.15;;;;;;;19.42;51.14;97646.50;2179704;82;21421;-80
2021/05/17 13:01:26;;;;;;;6.53;3.40;;;;;;;18.85;51.88;97655.89;2179354;82;20965;-79
2021/05/17 13:04:27;;;;;;;6.65;4.03;;;;;;;18.25;53.95;97666.56;2179581;82;20962;-80
2021/05/17 13:07:28;;;;;;;13.35;3.60;;;;;;;17.70;56.42;97671.18;2179581;82;21064;-80
2021/05/17 13:10:29;;;;;;;8.43;3.72;;;;;;;17.29;56.48;97672.99;2179626;82;20926;-80
2021/05/17 13:13:30;;;;;;;6.75;3.40;;;;;;;17.08;58.85;97674.11;2179749;82;20922;-80
2021/05/17 13:16:31;;;;;;;6.65;3.60;;;;;;;16.73;58.55;97675.23;2162546;81;21134;-81
2021/05/17 13:19:37;;;;;;;7.47;3.87;;;;;;;16.48;59.70;97667.20;2162020;82;20995;-80
2021/05/17 13:32:33;;;;;;;5.78;3.30;;;;;;;15.89;63.71;97659.25;2162064;82;20955;-79
2021/05/17 13:35:34;;;;;;;4.08;3.02;;;;;;;15.73;65.46;97668.47;2161710;82;20919;-80
2021/05/17 13:38:35;;;;;;;14.43;3.30;;;;;;;15.46;64.97;97669.15;2161435;82;20963;-79
2021/05/17 13:41:36;;;;;;;4.08;2.65;;;;;;;15.34;66.32;97669.02;2161616;82;21318;-80
2021/05/17 13:44:37;;;;;;;4.12;2.92;;;;;;;15.24;66.84;97663.13;2161874;82;21292;-80
2021/05/17 13:47:38;;;;;;;12.47;4.03;;;;;;;15.03;67.00;97662.36;2161857;82;21026;-83
2021/05/17 13:50:39;;;;;;;5.95;3.70;;;;;;;14.94;67.75;97666.52;2162346;82;21351;-80
2021/05/17 13:53:41;;;;;;;6.15;3.27;;;;;;;14.95;68.64;97681.39;2162120;82;20971;-79
2021/05/17 13:56:42;;;;;;;6.72;3.30;;;;;;;14.88;67.70;97671.92;2161932;82;20951;-80
2021/05/17 13:59:44;;;;;;;5.55;3.22;;;;;;;14.85;67.38;97674.17;2161933;82;21015;-79
2021/05/17 14:02:45;;;;;;;3.65;3.08;;;;;;;14.67;67.98;97682.45;2162429;82;20915;-81
2021/05/17 14:05:46;;;;;;;5.70;3.92;;;;;;;14.37;68.22;97693.60;2162212;82;20946;-80
2021/05/17 14:08:47;;;;;;;8.10;3.90;;;;;;;14.20;68.80;97704.01;2162159;82;21081;-80
2021/05/17 14:11:50;;;;;;;6.97;3.83;;;;;;;13.97;69.28;97699.23;2162531;82;20942;-80
2021/05/17 14:14:51;;;;;;;6.67;4.22;;;;;;;13.82;69.71;97675.89;2167420;81;21269;-81
2021/05/17 14:17:52;;;;;;;6.80;3.70;;;;;;;13.73;70.84;97677.83;2179930;82;20922;-80
2021/05/17 14:20:53;;;;;;;6.60;3.80;;;;;;;13.67;70.77;97686.67;2180061;82;20914;-79
2021/05/17 14:23:54;;;;;;;8.88;4.25;;;;;;;13.61;71.01;97693.34;2179923;82;20911;-80
2021/05/17 14:26:55;;;;;;;9.00;4.53;;;;;;;13.57;71.30;97687.74;2179315;82;20978;-80
2021/05/17 14:29:56;;;;;;;9.73;4.62;;;;;;;13.51;71.38;97686.55;2179453;82;21013;-79
2021/05/17 14:32:57;;;;;;;6.90;3.60;;;;;;;13.52;72.00;97693.07;2179676;82;20906;-79
2021/05/17 14:35:58;;;;;;;4.75;3.52;;;;;;;13.46;71.59;97687.07;2179707;82;21002;-79
2021/05/17 14:38:59;;;;;;;7.67;3.22;;;;;;;13.36;72.09;97687.23;2180023;82;20954;-80
2021/05/17 14:42:00;;;;;;;4.40;3.20;;;;;;;13.29;72.66;97692.17;2179987;82;21005;-79